Time;durP1;ratioP1;P1;durP2;ratioP2;P2;SDS_P1;SDS_P2;PMS_P1;PMS_P2;Temp;Humidity;BMP_temperature;BMP_pressure;BME280_temperature;BME280_humidity;BME280_pressure;Samples;Min_cycle;Max_cycle;Signal;HPM_P1;HPM_P2
2022/08/23 00:01:09;;;;;;;;;;;17.30;57.60;;;;;;6154558;23;19916;-70
2022/08/23 00:03:36;;;;;;;;;;;17.30;56.60;;;;;;6154791;23;19959;-70
2022/08/23 00:06:03;;;;;;;;;;;17.40;58.40;;;;;;6154882;23;19908;-70
2022/08/23 00:08:30;;;;;;;;;;;17.50;58.40;;;;;;6154765;23;19905;-70
2022/08/23 00:10:57;;;;;;;;;;;17.50;57.00;;;;;;6154570;23;19917;-69
2022/08/23 00:13:24;;;;;;;;;;;17.50;56.90;;;;;;6154717;23;19904;-69
2022/08/23 00:15:51;;;;;;;;;;;17.60;57.60;;;;;;6127635;23;19905;-68
2022/08/23 00:18:19;;;;;;;;;;;17.60;57.00;;;;;;6154142;23;20275;-68
2022/08/23 00:20:46;;;;;;;;;;;17.70;57.70;;;;;;6154330;23;20320;-68
2022/08/23 00:23:13;;;;;;;;;;;17.70;57.10;;;;;;6104318;23;19905;-68
2022/08/23 00:25:40;;;;;;;;;;;17.70;57.20;;;;;;6154998;23;19912;-69
2022/08/23 00:28:08;;;;;;;;;;;17.80;55.30;;;;;;6155030;23;20371;-68
2022/08/23 00:30:35;;;;;;;;;;;17.80;54.60;;;;;;6154644;23;19909;-68
2022/08/23 00:33:01;;;;;;;;;;;18.00;53.80;;;;;;6154854;23;19963;-68
2022/08/23 00:35:28;;;;;;;;;;;18.30;52.60;;;;;;6128278;23;19967;-68
2022/08/23 00:37:56;;;;;;;;;;;18.30;53.60;;;;;;6154326;23;19904;-68
2022/08/23 00:40:22;;;;;;;;;;;18.30;52.50;;;;;;6128627;23;20004;-68
2022/08/23 00:48:26;;;;;;;;;;;18.30;53.90;;;;;;6131736;23;20277;-68
2022/08/23 00:50:54;;;;;;;;;;;18.30;52.90;;;;;;6154286;23;19909;-67
2022/08/23 00:53:23;;;;;;;;;;;18.30;53.80;;;;;;6104125;23;19909;-68
2022/08/23 00:55:50;;;;;;;;;;;18.30;54.30;;;;;;6128448;23;20193;-68
2022/08/23 00:58:17;;;;;;;;;;;18.30;54.90;;;;;;6128231;23;19912;-68
2022/08/23 01:00:44;;;;;;;;;;;18.30;54.70;;;;;;6128676;23;20209;-69
2022/08/23 01:03:11;;;;;;;;;;;18.30;54.30;;;;;;6154857;23;19905;-69
2022/08/23 01:05:49;;;;;;;;;;;18.30;54.20;;;;;;6128111;23;19905;-69
2022/08/23 01:08:15;;;;;;;;;;;18.30;54.40;;;;;;6128329;23;20236;-69
2022/08/23 01:10:43;;;;;;;;;;;18.40;53.70;;;;;;6153931;23;19923;-69
2022/08/23 01:13:42;;;;;;;;;;;18.40;54.10;;;;;;6128201;23;20248;-69
2022/08/23 01:16:27;;;;;;;;;;;18.40;54.70;;;;;;6089411;23;19912;-69
2022/08/23 01:18:54;;;;;;;;;;;18.50;52.70;;;;;;6154078;23;19920;-69
2022/08/23 01:21:23;;;;;;;;;;;18.70;52.10;;;;;;6154572;23;19916;-69
2022/08/23 01:23:50;;;;;;;;;;;18.70;52.30;;;;;;6103784;23;19909;-69
2022/08/23 01:26:17;;;;;;;;;;;18.60;53.30;;;;;;6128607;23;19908;-69
2022/08/23 01:28:44;;;;;;;;;;;18.70;51.80;;;;;;6154028;23;19912;-69
2022/08/23 01:31:11;;;;;;;;;;;18.70;52.00;;;;;;6154376;23;19909;-69
2022/08/23 01:33:38;;;;;;;;;;;18.70;52.10;;;;;;6128118;23;19905;-69
2022/08/23 01:36:04;;;;;;;;;;;18.70;52.50;;;;;;6154439;23;19904;-68
2022/08/23 01:38:31;;;;;;;;;;;18.70;52.20;;;;;;6154320;23;19967;-70
2022/08/23 01:40:58;;;;;;;;;;;18.90;51.80;;;;;;6154427;23;19928;-69
2022/08/23 01:43:25;;;;;;;;;;;18.80;52.50;;;;;;6153741;23;19911;-69
2022/08/23 01:45:52;;;;;;;;;;;18.80;52.30;;;;;;6154084;23;19911;-69
2022/08/23 01:48:19;;;;;;;;;;;18.80;52.20;;;;;;6130078;23;20005;-69
2022/08/23 01:50:46;;;;;;;;;;;18.80;52.00;;;;;;6129991;23;20236;-68
2022/08/23 01:53:12;;;;;;;;;;;18.90;52.10;;;;;;6155869;23;19905;-69
2022/08/23 01:55:40;;;;;;;;;;;19.00;52.60;;;;;;6155891;23;20333;-69
2022/08/23 01:58:07;;;;;;;;;;;19.10;51.10;;;;;;6130030;23;19904;-69
2022/08/23 02:00:34;;;;;;;;;;;19.00;50.60;;;;;;6155954;23;20383;-69
2022/08/23 02:03:01;;;;;;;;;;;18.90;50.50;;;;;;6155925;23;19976;-69
2022/08/23 02:05:28;;;;;;;;;;;18.90;51.50;;;;;;6155788;23;20320;-69
2022/08/23 02:07:54;;;;;;;;;;;18.90;52.00;;;;;;6155578;23;19912;-69
2022/08/23 02:10:21;;;;;;;;;;;18.90;51.80;;;;;;6155454;23;20477;-69
2022/08/23 02:12:49;;;;;;;;;;;19.00;52.60;;;;;;6155993;23;19904;-69
2022/08/23 02:15:15;;;;;;;;;;;19.20;51.40;;;;;;6155666;23;19908;-69
2022/08/23 02:17:43;;;;;;;;;;;19.30;51.80;;;;;;6155538;23;19913;-70
2022/08/23 02:20:09;;;;;;;;;;;19.30;49.80;;;;;;6155614;23;19913;-67
2022/08/23 02:22:38;;;;;;;;;;;19.30;50.20;;;;;;6155545;23;19912;-70
2022/08/23 02:25:05;;;;;;;;;;;19.20;51.70;;;;;;6155466;23;19908;-69
2022/08/23 02:27:31;;;;;;;;;;;19.30;51.80;;;;;;6155923;23;19908;-70
2022/08/23 02:29:58;;;;;;;;;;;19.20;51.90;;;;;;6156088;23;19905;-70
2022/08/23 02:32:25;;;;;;;;;;;19.20;51.50;;;;;;6155411;23;19904;-70
2022/08/23 02:34:52;;;;;;;;;;;19.00;51.30;;;;;;6155470;23;19908;-68
2022/08/23 02:37:19;;;;;;;;;;;19.00;52.00;;;;;;6155486;23;19952;-68
2022/08/23 02:39:45;;;;;;;;;;;18.80;53.30;;;;;;6155715;23;20334;-68
2022/08/23 02:42:13;;;;;;;;;;;18.70;54.40;;;;;;6155256;23;19912;-68
2022/08/23 02:44:39;;;;;;;;;;;18.60;55.70;;;;;;6155456;23;20047;-68
2022/08/23 02:47:07;;;;;;;;;;;18.50;56.60;;;;;;6155333;23;19905;-68
2022/08/23 02:49:34;;;;;;;;;;;18.50;57.50;;;;;;6129710;23;19916;-68
2022/08/23 02:52:01;;;;;;;;;;;18.40;59.30;;;;;;6155064;23;20312;-68
2022/08/23 02:54:27;;;;;;;;;;;18.40;59.60;;;;;;6155317;23;19905;-68
2022/08/23 02:56:54;;;;;;;;;;;18.30;58.60;;;;;;6155239;23;20324;-68
2022/08/23 02:59:20;;;;;;;;;;;18.30;57.90;;;;;;6155446;23;19982;-68
2022/08/23 03:01:47;;;;;;;;;;;18.40;59.30;;;;;;6155194;23;19912;-68
2022/08/23 03:04:14;;;;;;;;;;;18.50;56.60;;;;;;6154462;23;19963;-69
2022/08/23 03:06:40;;;;;;;;;;;17.90;65.10;;;;;;6155514;23;20399;-70
2022/08/23 03:09:07;;;;;;;;;;;16.80;69.60;;;;;;6155400;23;19967;-67
2022/08/23 03:11:34;;;;;;;;;;;16.20;72.90;;;;;;6154841;23;19958;-67
2022/08/23 03:14:00;;;;;;;;;;;15.90;73.40;;;;;;6155252;23;20335;-68
2022/08/23 03:16:27;;;;;;;;;;;15.50;74.20;;;;;;6154944;23;19905;-68
2022/08/23 03:18:54;;;;;;;;;;;15.40;75.10;;;;;;6154904;23;20434;-68
2022/08/23 03:21:20;;;;;;;;;;;15.20;75.80;;;;;;6155061;23;20220;-69
2022/08/23 03:23:47;;;;;;;;;;;15.00;76.60;;;;;;6154889;23;19905;-69
2022/08/23 03:26:14;;;;;;;;;;;14.80;78.40;;;;;;6155027;23;19905;-68
2022/08/23 03:28:41;;;;;;;;;;;14.70;78.80;;;;;;6154960;23;19952;-69
2022/08/23 03:31:07;;;;;;;;;;;14.70;79.40;;;;;;6155081;23;19961;-68
2022/08/23 03:33:34;;;;;;;;;;;14.70;79.00;;;;;;6155088;23;20244;-69
2022/08/23 03:36:02;;;;;;;;;;;14.70;79.50;;;;;;6155038;23;20340;-69
2022/08/23 03:38:28;;;;;;;;;;;14.60;79.90;;;;;;6155163;23;20067;-69
2022/08/23 03:40:55;;;;;;;;;;;14.50;79.40;;;;;;6155225;23;19905;-68
2022/08/23 03:43:22;;;;;;;;;;;14.40;78.00;;;;;;6155197;23;19905;-70
2022/08/23 03:45:49;;;;;;;;;;;14.10;78.50;;;;;;6154398;23;19905;-70
2022/08/23 03:48:16;;;;;;;;;;;14.00;78.40;;;;;;6154985;23;20343;-69
2022/08/23 03:50:42;;;;;;;;;;;14.00;82.30;;;;;;6154891;23;19904;-68
2022/08/23 03:53:09;;;;;;;;;;;13.80;83.90;;;;;;6155255;23;19905;-69
2022/08/23 03:55:36;;;;;;;;;;;13.50;85.70;;;;;;6128107;23;20332;-69
2022/08/23 03:58:02;;;;;;;;;;;13.20;86.00;;;;;;6155638;23;20028;-70
2022/08/23 04:00:30;;;;;;;;;;;13.00;86.90;;;;;;6154838;23;20360;-69
2022/08/23 04:02:56;;;;;;;;;;;12.90;86.40;;;;;;6155162;23;19909;-67
2022/08/23 04:05:23;;;;;;;;;;;12.80;85.90;;;;;;6154711;23;20280;-67
2022/08/23 04:07:50;;;;;;;;;;;12.80;84.10;;;;;;6154915;23;20316;-69
2022/08/23 04:10:16;;;;;;;;;;;12.80;85.90;;;;;;6128288;23;19987;-69
2022/08/23 04:12:43;;;;;;;;;;;12.80;84.60;;;;;;6154925;23;19911;-69
2022/08/23 04:15:10;;;;;;;;;;;12.60;83.00;;;;;;6154788;23;19909;-68
2022/08/23 04:17:37;;;;;;;;;;;12.50;83.80;;;;;;6154234;23;19911;-69
2022/08/23 04:20:04;;;;;;;;;;;12.60;83.80;;;;;;6127958;23;19992;-69
2022/08/23 04:22:30;;;;;;;;;;;12.60;83.90;;;;;;6154671;23;19984;-69
2022/08/23 04:24:57;;;;;;;;;;;12.40;84.90;;;;;;6155026;23;19905;-68
2022/08/23 04:27:24;;;;;;;;;;;12.40;86.20;;;;;;6128791;23;19943;-71
2022/08/23 04:29:50;;;;;;;;;;;12.20;86.00;;;;;;6154667;23;19955;-69
2022/08/23 04:32:17;;;;;;;;;;;12.10;86.70;;;;;;6128492;23;20221;-68
2022/08/23 04:34:44;;;;;;;;;;;12.00;86.40;;;;;;6128068;23;20527;-69
2022/08/23 04:37:11;;;;;;;;;;;11.80;86.30;;;;;;6154440;23;19904;-68
2022/08/23 04:42:22;;;;;;;;;;;11.70;87.50;;;;;;6154452;23;19971;-67
2022/08/23 04:44:49;;;;;;;;;;;11.50;88.60;;;;;;6128512;23;19934;-67
2022/08/23 04:47:16;;;;;;;;;;;11.50;89.70;;;;;;6154507;23;19932;-68
2022/08/23 04:49:43;;;;;;;;;;;11.10;88.80;;;;;;6154435;23;20351;-68
2022/08/23 04:52:10;;;;;;;;;;;11.00;90.00;;;;;;6154303;23;19909;-67
2022/08/23 04:54:36;;;;;;;;;;;10.90;89.20;;;;;;6154304;23;19905;-67
2022/08/23 04:57:03;;;;;;;;;;;11.00;90.10;;;;;;6154166;23;19900;-67
2022/08/23 04:59:29;;;;;;;;;;;11.00;88.70;;;;;;6154718;23;20248;-67
2022/08/23 05:01:56;;;;;;;;;;;11.00;88.90;;;;;;6154431;23;19909;-66
2022/08/23 05:04:23;;;;;;;;;;;10.90;88.20;;;;;;6154132;23;19905;-68
2022/08/23 05:06:51;;;;;;;;;;;10.80;88.80;;;;;;6154065;23;19911;-67
2022/08/23 05:09:17;;;;;;;;;;;10.80;88.50;;;;;;6154215;23;19919;-67
2022/08/23 05:11:44;;;;;;;;;;;10.80;88.60;;;;;;6154435;23;19905;-66
2022/08/23 05:14:11;;;;;;;;;;;10.80;88.60;;;;;;6154322;23;19987;-68
2022/08/23 05:16:37;;;;;;;;;;;10.80;90.10;;;;;;6154009;23;19904;-67
2022/08/23 05:19:04;;;;;;;;;;;10.70;90.20;;;;;;6154204;23;19984;-66
2022/08/23 05:21:31;;;;;;;;;;;10.60;91.50;;;;;;6155351;23;19909;-66
2022/08/23 05:23:58;;;;;;;;;;;10.40;92.10;;;;;;6156706;23;19912;-67
2022/08/23 05:26:24;;;;;;;;;;;10.30;92.30;;;;;;6156883;23;19909;-67
2022/08/23 05:28:51;;;;;;;;;;;10.20;92.50;;;;;;6155700;23;19908;-66
2022/08/23 05:31:23;;;;;;;;;;;10.20;93.00;;;;;;6155509;23;19940;-67
2022/08/23 05:33:49;;;;;;;;;;;10.20;93.20;;;;;;6156099;23;19960;-67
2022/08/23 05:36:16;;;;;;;;;;;10.20;93.00;;;;;;6156280;23;19904;-68
2022/08/23 05:38:44;;;;;;;;;;;10.00;93.00;;;;;;6155894;23;20276;-67
2022/08/23 05:41:11;;;;;;;;;;;10.00;93.10;;;;;;6156307;23;19909;-67
2022/08/23 05:43:37;;;;;;;;;;;10.10;93.10;;;;;;6155026;23;19980;-67
2022/08/23 05:46:09;;;;;;;;;;;10.20;93.50;;;;;;6155570;23;20283;-67
2022/08/23 05:48:36;;;;;;;;;;;10.20;93.40;;;;;;6130692;23;20312;-67
2022/08/23 05:51:09;;;;;;;;;;;10.20;93.40;;;;;;6156260;23;19908;-67
2022/08/23 05:53:36;;;;;;;;;;;10.20;93.50;;;;;;6156212;23;20276;-67
2022/08/23 05:56:29;;;;;;;;;;;10.30;93.80;;;;;;6155398;23;19948;-67
2022/08/23 05:58:56;;;;;;;;;;;10.30;93.80;;;;;;6150144;23;19913;-67
2022/08/23 06:01:23;;;;;;;;;;;10.30;93.60;;;;;;6129848;23;19960;-67
2022/08/23 06:03:50;;;;;;;;;;;10.30;93.30;;;;;;6155509;23;19913;-67
2022/08/23 06:06:16;;;;;;;;;;;10.30;93.40;;;;;;6155060;23;19904;-66
2022/08/23 06:08:45;;;;;;;;;;;10.40;93.10;;;;;;6155434;23;19926;-67
2022/08/23 06:11:14;;;;;;;;;;;10.30;92.90;;;;;;6154296;23;20280;-68
2022/08/23 06:13:42;;;;;;;;;;;10.30;93.00;;;;;;6153870;23;19983;-67
2022/08/23 06:16:09;;;;;;;;;;;10.30;93.00;;;;;;6154759;23;20359;-67
2022/08/23 06:18:35;;;;;;;;;;;10.30;93.00;;;;;;6154133;23;19971;-67
2022/08/23 06:21:03;;;;;;;;;;;10.30;93.10;;;;;;6155972;23;19916;-66
2022/08/23 06:23:31;;;;;;;;;;;10.20;93.00;;;;;;6155188;23;19909;-67
2022/08/23 06:25:58;;;;;;;;;;;10.20;93.00;;;;;;6155300;23;20257;-67
2022/08/23 06:28:24;;;;;;;;;;;10.10;92.80;;;;;;6129139;23;20320;-67
2022/08/23 06:30:54;;;;;;;;;;;10.10;92.90;;;;;;6155268;23;19932;-68
2022/08/23 06:33:21;;;;;;;;;;;10.10;93.40;;;;;;6149744;23;19912;-66
2022/08/23 06:35:49;;;;;;;;;;;10.10;93.40;;;;;;6151159;23;19904;-67
2022/08/23 06:38:16;;;;;;;;;;;10.20;93.50;;;;;;6125791;23;19909;-67
2022/08/23 06:40:43;;;;;;;;;;;10.10;93.70;;;;;;6151910;23;19932;-66
2022/08/23 06:43:10;;;;;;;;;;;10.20;93.60;;;;;;6152471;23;19936;-66
2022/08/23 06:45:36;;;;;;;;;;;10.20;93.60;;;;;;6151835;23;20265;-66
2022/08/23 06:48:03;;;;;;;;;;;10.20;93.70;;;;;;6151932;23;19920;-66
2022/08/23 06:50:30;;;;;;;;;;;10.10;93.20;;;;;;6152081;23;19944;-66
2022/08/23 06:52:56;;;;;;;;;;;10.20;93.30;;;;;;6151396;23;19909;-66
2022/08/23 06:55:23;;;;;;;;;;;10.20;93.10;;;;;;6149052;23;19959;-66
2022/08/23 06:57:49;;;;;;;;;;;10.10;92.70;;;;;;6150684;23;19979;-68
2022/08/23 07:00:16;;;;;;;;;;;10.00;92.90;;;;;;6151872;23;19917;-67
2022/08/23 07:02:43;;;;;;;;;;;10.10;93.30;;;;;;6152022;23;19987;-66
2022/08/23 07:05:09;;;;;;;;;;;10.10;93.00;;;;;;6149429;23;19927;-66
2022/08/23 07:07:36;;;;;;;;;;;10.10;93.20;;;;;;6148626;23;19947;-65
2022/08/23 07:10:03;;;;;;;;;;;10.10;93.20;;;;;;6150783;23;19927;-65
2022/08/23 07:12:30;;;;;;;;;;;9.90;92.80;;;;;;6151363;23;19913;-64
2022/08/23 07:14:57;;;;;;;;;;;9.90;93.10;;;;;;6151085;23;20000;-64
2022/08/23 07:17:24;;;;;;;;;;;10.00;93.30;;;;;;6151114;23;19909;-66
2022/08/23 07:19:50;;;;;;;;;;;9.90;93.00;;;;;;6151298;23;19913;-64
2022/08/23 07:22:18;;;;;;;;;;;10.00;92.90;;;;;;6151845;23;19915;-64
2022/08/23 07:24:45;;;;;;;;;;;9.80;92.50;;;;;;6151180;23;19932;-64
2022/08/23 07:27:12;;;;;;;;;;;9.90;92.50;;;;;;6151390;23;20239;-64
2022/08/23 07:29:38;;;;;;;;;;;10.00;92.80;;;;;;6149810;23;19909;-64
2022/08/23 07:32:05;;;;;;;;;;;10.00;92.80;;;;;;6151719;23;19913;-64
2022/08/23 07:34:32;;;;;;;;;;;9.90;92.20;;;;;;6151659;23;19932;-64
2022/08/23 07:37:00;;;;;;;;;;;9.90;92.50;;;;;;6150976;23;20332;-64
2022/08/23 07:39:27;;;;;;;;;;;9.90;92.20;;;;;;6151612;23;20335;-64
2022/08/23 07:41:53;;;;;;;;;;;9.90;92.50;;;;;;6151659;23;19912;-64
2022/08/23 07:44:20;;;;;;;;;;;9.90;92.20;;;;;;6151180;23;19935;-65
2022/08/23 10:18:58;;;;;;;;;;;9.00;92.40;;;;;;6148018;23;19927;-69
2022/08/23 10:21:34;;;;;;;;;;;8.90;92.20;;;;;;6126130;23;19923;-70
2022/08/23 10:24:04;;;;;;;;;;;8.90;92.20;;;;;;6152822;23;20237;-71
2022/08/23 10:26:31;;;;;;;;;;;8.90;92.30;;;;;;6152562;23;19916;-72
2022/08/23 10:31:46;;;;;;;;;;;8.90;92.20;;;;;;6147056;23;19919;-73
2022/08/23 10:34:19;;;;;;;;;;;8.80;92.10;;;;;;6126358;23;19905;-72
2022/08/23 10:36:49;;;;;;;;;;;8.80;92.30;;;;;;6125449;23;19909;-70
2022/08/23 10:39:19;;;;;;;;;;;8.80;92.20;;;;;;6125607;23;20383;-68
2022/08/23 10:42:03;;;;;;;;;;;8.80;92.00;;;;;;6152003;23;20530;-70
2022/08/23 10:44:34;;;;;;;;;;;8.80;92.20;;;;;;6151464;23;19908;-67
2022/08/23 10:47:13;;;;;;;;;;;8.80;92.30;;;;;;6151765;23;19987;-68
2022/08/23 10:49:40;;;;;;;;;;;8.80;92.60;;;;;;6152780;23;20214;-69
2022/08/23 10:52:08;;;;;;;;;;;8.80;92.00;;;;;;6152615;23;19947;-67
2022/08/23 10:54:58;;;;;;;;;;;8.70;92.10;;;;;;6125385;23;19913;-71
2022/08/23 10:57:28;;;;;;;;;;;8.70;92.30;;;;;;6128995;23;19916;-69
2022/08/23 10:59:54;;;;;;;;;;;8.70;92.40;;;;;;6126329;23;20007;-69
2022/08/23 11:02:30;;;;;;;;;;;8.70;92.30;;;;;;6152298;23;19919;-69
2022/08/23 11:05:07;;;;;;;;;;;8.70;92.30;;;;;;6124750;23;20304;-69
2022/08/23 11:07:36;;;;;;;;;;;8.70;92.30;;;;;;6126849;23;19987;-71
2022/08/23 11:10:05;;;;;;;;;;;8.70;92.40;;;;;;6152278;23;19912;-70
2022/08/23 11:12:33;;;;;;;;;;;8.70;92.60;;;;;;6152782;23;19963;-71
2022/08/23 11:15:02;;;;;;;;;;;8.70;92.30;;;;;;6152127;23;19919;-70
2022/08/23 11:17:30;;;;;;;;;;;8.70;92.20;;;;;;6152534;23;19965;-69
2022/08/23 11:19:58;;;;;;;;;;;8.70;92.10;;;;;;6123696;23;20352;-69
2022/08/23 11:22:28;;;;;;;;;;;8.70;92.30;;;;;;6152179;23;19923;-69
2022/08/23 11:24:58;;;;;;;;;;;8.60;92.20;;;;;;6152088;23;20284;-69
2022/08/23 11:27:29;;;;;;;;;;;8.70;92.30;;;;;;6125804;23;19904;-70
2022/08/23 11:29:55;;;;;;;;;;;8.60;92.10;;;;;;6123126;23;19988;-69
2022/08/23 11:32:25;;;;;;;;;;;8.60;92.10;;;;;;6151272;23;19912;-69
2022/08/23 11:34:51;;;;;;;;;;;8.60;92.00;;;;;;6125886;23;19916;-69
2022/08/23 11:37:18;;;;;;;;;;;8.60;92.30;;;;;;6152028;23;19908;-69
2022/08/23 11:39:56;;;;;;;;;;;8.70;92.00;;;;;;6151668;23;19923;-69
2022/08/23 11:42:43;;;;;;;;;;;8.60;91.90;;;;;;6150762;23;20370;-69
2022/08/23 11:45:39;;;;;;;;;;;8.50;91.80;;;;;;6125934;23;19912;-70
2022/08/23 11:48:06;;;;;;;;;;;8.60;91.80;;;;;;6126145;23;19908;-69
2022/08/23 11:50:35;;;;;;;;;;;8.50;91.70;;;;;;6151679;23;19948;-70
2022/08/23 11:53:11;;;;;;;;;;;8.60;91.80;;;;;;6125523;23;19936;-71
2022/08/23 11:55:38;;;;;;;;;;;8.60;92.00;;;;;;6125750;23;19912;-70
2022/08/23 11:58:23;;;;;;;;;;;8.60;92.10;;;;;;6151401;23;19937;-70
2022/08/23 12:00:52;;;;;;;;;;;8.60;92.00;;;;;;6151214;23;19945;-69
2022/08/23 12:03:23;;;;;;;;;;;8.60;91.90;;;;;;6125583;23;20016;-68
2022/08/23 12:05:49;;;;;;;;;;;8.60;91.90;;;;;;6151815;23;19959;-67
2022/08/23 12:08:33;;;;;;;;;;;8.60;92.00;;;;;;6151497;23;19908;-69
2022/08/23 12:11:00;;;;;;;;;;;8.70;91.80;;;;;;6151801;23;19905;-68
2022/08/23 12:13:45;;;;;;;;;;;8.70;91.80;;;;;;6151596;23;19909;-68
2022/08/23 12:16:18;;;;;;;;;;;8.70;91.90;;;;;;6126270;23;20347;-68
2022/08/23 12:18:52;;;;;;;;;;;8.70;91.70;;;;;;6150092;23;19927;-68
2022/08/23 12:21:20;;;;;;;;;;;8.70;91.70;;;;;;6122911;23;19921;-69
2022/08/23 12:23:48;;;;;;;;;;;8.70;91.50;;;;;;6125184;23;20363;-68
2022/08/23 12:26:20;;;;;;;;;;;8.70;91.50;;;;;;6150888;23;19912;-67
2022/08/23 12:28:48;;;;;;;;;;;8.70;91.40;;;;;;6150629;23;19905;-68
2022/08/23 12:31:16;;;;;;;;;;;8.70;91.60;;;;;;6147460;23;19911;-69
2022/08/23 12:33:47;;;;;;;;;;;8.70;91.70;;;;;;6124227;23;19913;-69
2022/08/23 12:36:16;;;;;;;;;;;8.70;91.60;;;;;;6151370;23;19912;-71
2022/08/23 12:39:16;;;;;;;;;;;8.70;91.40;;;;;;6125096;23;19929;-71
2022/08/23 12:41:54;;;;;;;;;;;8.80;91.70;;;;;;6086523;23;19948;-70
2022/08/23 12:44:22;;;;;;;;;;;8.70;91.60;;;;;;6123928;23;19908;-69
2022/08/23 12:46:48;;;;;;;;;;;8.70;91.60;;;;;;6150830;23;19991;-72
2022/08/23 12:49:28;;;;;;;;;;;8.70;91.40;;;;;;6151390;23;19999;-69
2022/08/23 12:51:56;;;;;;;;;;;8.70;91.50;;;;;;6150938;23;20300;-69
2022/08/23 12:54:23;;;;;;;;;;;8.70;91.40;;;;;;6125517;23;19908;-69
2022/08/23 12:56:51;;;;;;;;;;;8.70;91.30;;;;;;6125622;23;19909;-69
2022/08/23 12:59:53;;;;;;;;;;;8.70;91.30;;;;;;6151250;23;19916;-69
2022/08/23 13:02:23;;;;;;;;;;;8.70;90.90;;;;;;6031222;23;19918;-69
2022/08/23 13:04:50;;;;;;;;;;;8.70;90.90;;;;;;6103981;23;20033;-70
2022/08/23 13:07:18;;;;;;;;;;;8.70;90.80;;;;;;6125649;23;19909;-70
2022/08/23 13:09:45;;;;;;;;;;;8.70;91.00;;;;;;6125113;23;19928;-72
2022/08/23 13:12:12;;;;;;;;;;;8.80;90.90;;;;;;6128496;23;19911;-70
2022/08/23 13:14:51;;;;;;;;;;;8.70;90.70;;;;;;6154571;23;19913;-70
2022/08/23 13:17:19;;;;;;;;;;;8.70;90.70;;;;;;6127613;23;20244;-70
2022/08/23 13:19:49;;;;;;;;;;;8.80;90.70;;;;;;6127728;23;19920;-70
2022/08/23 13:22:20;;;;;;;;;;;8.80;90.30;;;;;;6128682;23;19944;-70
2022/08/23 13:24:59;;;;;;;;;;;8.80;90.20;;;;;;6153526;23;19904;-70
2022/08/23 13:27:48;;;;;;;;;;;8.80;90.40;;;;;;6153691;23;20324;-69
2022/08/23 13:30:16;;;;;;;;;;;8.90;90.20;;;;;;6138429;23;19987;-70
2022/08/23 13:32:47;;;;;;;;;;;9.00;90.10;;;;;;6154117;23;20332;-69
2022/08/23 13:35:31;;;;;;;;;;;9.00;89.80;;;;;;6154054;23;19911;-70
2022/08/23 13:38:20;;;;;;;;;;;8.90;90.10;;;;;;6154285;23;20285;-70
2022/08/23 13:40:57;;;;;;;;;;;9.00;89.90;;;;;;6138789;23;19920;-69
2022/08/23 13:43:35;;;;;;;;;;;9.00;89.60;;;;;;6129299;23;19951;-70
2022/08/23 13:46:12;;;;;;;;;;;9.00;89.50;;;;;;6129521;23;19905;-70
2022/08/23 13:48:43;;;;;;;;;;;9.00;89.10;;;;;;6130003;23;20291;-70
2022/08/23 13:51:17;;;;;;;;;;;9.00;89.00;;;;;;6130137;23;20209;-70
2022/08/23 13:53:43;;;;;;;;;;;9.00;88.50;;;;;;6129663;23;20225;-69
2022/08/23 13:56:10;;;;;;;;;;;9.10;88.70;;;;;;6155806;23;19930;-70
2022/08/23 13:58:36;;;;;;;;;;;9.00;88.60;;;;;;6155456;23;19905;-69
2022/08/23 14:01:03;;;;;;;;;;;9.10;88.10;;;;;;6155384;23;19963;-70
2022/08/23 14:03:33;;;;;;;;;;;9.10;88.20;;;;;;6129512;23;19909;-69
2022/08/23 14:06:00;;;;;;;;;;;9.10;88.00;;;;;;6155414;23;19905;-69
2022/08/23 14:08:26;;;;;;;;;;;9.10;87.90;;;;;;6155291;23;19945;-69
2022/08/23 14:10:53;;;;;;;;;;;9.10;87.60;;;;;;6155403;23;20344;-69
2022/08/23 14:13:19;;;;;;;;;;;9.20;87.50;;;;;;6155930;23;19905;-69
2022/08/23 14:15:46;;;;;;;;;;;9.10;87.30;;;;;;6155895;23;20276;-69
2022/08/23 14:18:13;;;;;;;;;;;9.10;87.30;;;;;;6156052;23;19911;-69
2022/08/23 14:20:39;;;;;;;;;;;9.20;87.20;;;;;;6154991;23;19916;-70
2022/08/23 14:23:06;;;;;;;;;;;9.20;87.10;;;;;;6155457;23;20368;-69
2022/08/23 14:25:32;;;;;;;;;;;9.20;86.70;;;;;;6155824;23;19932;-69
2022/08/23 14:27:59;;;;;;;;;;;9.20;86.60;;;;;;6155818;23;20348;-69
2022/08/23 14:30:27;;;;;;;;;;;9.20;86.60;;;;;;6155962;23;19904;-70
2022/08/23 14:32:53;;;;;;;;;;;9.20;86.10;;;;;;6154552;23;19932;-70
2022/08/23 14:35:20;;;;;;;;;;;9.20;85.90;;;;;;6155575;23;19984;-69
2022/08/23 14:37:47;;;;;;;;;;;9.20;86.20;;;;;;6155026;23;20291;-69
2022/08/23 14:40:14;;;;;;;;;;;9.20;85.40;;;;;;6155572;23;19919;-69
2022/08/23 14:42:40;;;;;;;;;;;9.20;85.30;;;;;;6155443;23;19905;-69
2022/08/23 14:45:07;;;;;;;;;;;9.20;85.10;;;;;;6155391;23;19909;-70
2022/08/23 14:47:34;;;;;;;;;;;9.20;84.60;;;;;;6155695;23;19915;-69
2022/08/23 14:50:01;;;;;;;;;;;9.30;85.10;;;;;;6156043;23;19916;-71
2022/08/23 14:52:28;;;;;;;;;;;9.20;84.60;;;;;;6129461;23;20394;-70
2022/08/23 14:54:54;;;;;;;;;;;9.30;84.00;;;;;;6155187;23;19959;-70
2022/08/23 14:57:21;;;;;;;;;;;9.30;84.50;;;;;;6154977;23;19943;-70
2022/08/23 14:59:48;;;;;;;;;;;9.30;83.50;;;;;;6154853;23;19913;-70
2022/08/23 15:02:16;;;;;;;;;;;9.30;83.80;;;;;;6154684;23;19909;-69
2022/08/23 15:04:42;;;;;;;;;;;9.30;83.50;;;;;;6129540;23;20031;-69
2022/08/23 15:07:09;;;;;;;;;;;9.30;83.30;;;;;;6155242;23;20243;-70
2022/08/23 15:09:36;;;;;;;;;;;9.30;82.60;;;;;;6155578;23;19912;-70
2022/08/23 15:12:02;;;;;;;;;;;9.30;82.30;;;;;;6155405;23;19904;-70
2022/08/23 15:14:29;;;;;;;;;;;9.40;82.60;;;;;;6155656;23;20238;-70
2022/08/23 15:16:56;;;;;;;;;;;9.30;82.60;;;;;;6129131;23;20354;-70
2022/08/23 15:19:22;;;;;;;;;;;9.30;81.30;;;;;;6155367;23;19917;-70
2022/08/23 15:21:49;;;;;;;;;;;9.30;81.00;;;;;;6154974;23;19921;-70
2022/08/23 15:24:15;;;;;;;;;;;9.30;81.30;;;;;;6155918;23;19916;-70
2022/08/23 15:26:42;;;;;;;;;;;9.30;81.30;;;;;;6155245;23;19905;-70
2022/08/23 15:29:08;;;;;;;;;;;9.30;79.90;;;;;;6155087;23;19915;-70
2022/08/23 15:31:35;;;;;;;;;;;9.30;80.10;;;;;;6154349;23;19916;-70
2022/08/23 15:34:02;;;;;;;;;;;9.30;79.80;;;;;;6153906;23;19983;-69
2022/08/23 15:36:30;;;;;;;;;;;9.30;79.50;;;;;;6154137;23;19967;-70
2022/08/23 15:38:56;;;;;;;;;;;9.30;79.80;;;;;;6154937;23;19908;-70
2022/08/23 15:41:23;;;;;;;;;;;9.40;79.60;;;;;;6154942;23;19911;-70
2022/08/23 15:43:49;;;;;;;;;;;9.40;80.10;;;;;;6155168;23;19911;-70
2022/08/23 15:46:21;;;;;;;;;;;9.40;78.60;;;;;;6154465;23;19983;-70
2022/08/23 15:48:58;;;;;;;;;;;9.30;79.30;;;;;;6155114;23;19905;-70
2022/08/23 15:51:24;;;;;;;;;;;9.30;78.80;;;;;;6154704;23;19905;-70
2022/08/23 15:53:51;;;;;;;;;;;9.30;78.60;;;;;;6154753;23;19911;-70
2022/08/23 15:56:19;;;;;;;;;;;9.30;77.70;;;;;;6128956;23;20344;-70
2022/08/23 15:58:46;;;;;;;;;;;9.30;77.30;;;;;;6154237;23;19916;-70
2022/08/23 16:01:12;;;;;;;;;;;9.30;77.80;;;;;;6154862;23;19909;-70
2022/08/23 16:03:41;;;;;;;;;;;9.30;77.30;;;;;;6154383;23;19909;-70
2022/08/23 16:06:08;;;;;;;;;;;9.30;77.50;;;;;;6129270;23;20247;-70
2022/08/23 16:08:36;;;;;;;;;;;9.30;78.10;;;;;;6128054;23;19908;-70
2022/08/23 16:11:06;;;;;;;;;;;9.30;78.10;;;;;;6154214;23;19905;-70
2022/08/23 16:13:33;;;;;;;;;;;9.30;77.80;;;;;;6154795;23;19905;-70
2022/08/23 16:15:59;;;;;;;;;;;9.30;77.50;;;;;;6154583;23;20789;-70
2022/08/23 16:18:26;;;;;;;;;;;9.30;77.30;;;;;;6154742;23;19904;-71
2022/08/23 16:20:53;;;;;;;;;;;9.30;77.80;;;;;;6154524;23;19917;-70
2022/08/23 16:23:19;;;;;;;;;;;9.30;75.90;;;;;;6155032;23;19969;-70
2022/08/23 16:25:46;;;;;;;;;;;9.20;76.90;;;;;;6155116;23;19909;-70
2022/08/23 16:28:13;;;;;;;;;;;9.30;77.40;;;;;;6154836;23;19931;-70
2022/08/23 16:30:39;;;;;;;;;;;9.20;77.10;;;;;;6129200;23;19904;-70
2022/08/23 16:33:06;;;;;;;;;;;9.20;76.40;;;;;;6154308;23;19905;-70
2022/08/23 16:35:32;;;;;;;;;;;9.20;76.20;;;;;;6128581;23;19904;-69
2022/08/23 16:37:59;;;;;;;;;;;9.20;75.30;;;;;;6154907;23;19912;-69
2022/08/23 16:40:26;;;;;;;;;;;9.20;76.20;;;;;;6154713;23;20003;-70
2022/08/23 16:42:52;;;;;;;;;;;9.20;75.00;;;;;;6155093;23;19915;-69
2022/08/23 16:45:19;;;;;;;;;;;9.20;75.60;;;;;;6153776;23;19908;-70
2022/08/23 16:47:46;;;;;;;;;;;9.20;75.90;;;;;;6153943;23;19923;-70
2022/08/23 16:50:12;;;;;;;;;;;9.20;75.40;;;;;;6154595;23;19904;-70
2022/08/23 16:52:39;;;;;;;;;;;9.20;74.70;;;;;;6128282;23;19909;-70
2022/08/23 16:55:07;;;;;;;;;;;9.20;74.50;;;;;;6155317;23;19908;-70
2022/08/23 17:31:42;;;;;;;;;;;9.20;73.60;;;;;;6155559;23;19923;-70
2022/08/23 17:34:09;;;;;;;;;;;9.20;72.90;;;;;;6156048;23;19913;-70
2022/08/23 17:36:38;;;;;;;;;;;9.20;73.20;;;;;;6156289;23;20006;-70
2022/08/23 17:39:06;;;;;;;;;;;9.20;72.50;;;;;;6130202;23;19908;-70
2022/08/23 17:41:32;;;;;;;;;;;9.20;73.10;;;;;;6130121;23;19908;-70
2022/08/23 17:43:59;;;;;;;;;;;9.20;72.30;;;;;;6156183;23;19912;-70
2022/08/23 17:46:26;;;;;;;;;;;9.20;72.80;;;;;;6156132;23;20252;-70
2022/08/23 17:48:52;;;;;;;;;;;9.20;72.30;;;;;;6156209;23;19905;-70